createdAt,value
2023-06-30T00:00:18.201Z,30.24
2023-06-30T00:01:18.296Z,30.24
2023-06-30T00:02:18.403Z,30.24
2023-06-30T00:03:18.559Z,30.24
2023-06-30T00:04:18.465Z,30.23
2023-06-30T00:05:18.507Z,30.24
2023-06-30T00:06:18.544Z,30.25
2023-06-30T00:07:18.642Z,30.23
2023-06-30T00:08:18.643Z,30.24
2023-06-30T00:09:18.705Z,30.23
2023-06-30T00:10:18.761Z,30.23
2023-06-30T00:11:18.813Z,30.25
2023-06-30T00:12:18.853Z,30.23
2023-06-30T00:13:18.893Z,30.23
2023-06-30T00:14:18.940Z,30.24
2023-06-30T00:15:19.021Z,30.21
2023-06-30T00:16:19.096Z,30.23
2023-06-30T00:17:19.155Z,30.21
2023-06-30T00:18:19.191Z,30.21
2023-06-30T00:19:19.208Z,30.23
2023-06-30T00:20:19.301Z,30.21
2023-06-30T00:21:19.350Z,30.24
2023-06-30T00:22:19.377Z,30.21
2023-06-30T00:23:19.433Z,30.21
2023-06-30T00:24:19.432Z,30.24
2023-06-30T00:25:19.487Z,30.20
2023-06-30T00:26:19.499Z,30.18
2023-06-30T00:27:19.554Z,30.21
2023-06-30T00:28:19.620Z,30.21
2023-06-30T00:29:19.688Z,30.20
2023-06-30T00:30:19.731Z,30.21
2023-06-30T00:31:19.860Z,30.23
2023-06-30T00:32:19.934Z,30.21
2023-06-30T00:33:19.947Z,30.23
2023-06-30T00:34:19.991Z,30.21
2023-06-30T00:35:20.040Z,30.20
2023-06-30T00:36:20.042Z,30.20
2023-06-30T00:37:20.133Z,30.21
2023-06-30T00:38:20.213Z,30.21
2023-06-30T00:39:20.210Z,30.21
2023-06-30T00:40:20.254Z,30.18
2023-06-30T00:41:20.323Z,30.17
2023-06-30T00:42:20.365Z,30.21
2023-06-30T00:43:20.437Z,30.18
2023-06-30T00:44:20.434Z,30.20
2023-06-30T00:45:20.498Z,30.18
2023-06-30T00:46:20.503Z,30.18
2023-06-30T00:47:20.603Z,30.20
2023-06-30T00:48:20.623Z,30.20
2023-06-30T00:49:20.621Z,30.20
2023-06-30T00:50:20.656Z,30.18
2023-06-30T00:51:20.759Z,30.20
2023-06-30T00:52:20.793Z,30.17
2023-06-30T00:53:20.862Z,30.18
2023-06-30T00:54:20.901Z,30.18
2023-06-30T00:55:20.930Z,30.20
2023-06-30T00:56:20.986Z,30.17
2023-06-30T00:57:21.040Z,30.17
2023-06-30T00:58:21.102Z,30.18
2023-06-30T00:59:21.169Z,30.17
2023-06-30T01:00:21.244Z,30.17
2023-06-30T01:01:21.354Z,30.17
2023-06-30T01:02:21.350Z,30.18
2023-06-30T01:03:21.505Z,30.18
2023-06-30T01:04:21.515Z,30.17
2023-06-30T01:05:21.490Z,30.17
2023-06-30T01:06:21.572Z,30.18
2023-06-30T01:07:21.667Z,30.18
2023-06-30T01:08:21.658Z,30.17
2023-06-30T01:09:21.687Z,30.20
2023-06-30T01:10:21.733Z,30.18
2023-06-30T01:11:21.802Z,30.17
2023-06-30T01:12:21.855Z,30.18
2023-06-30T01:13:21.894Z,30.18
2023-06-30T01:14:21.912Z,30.17
2023-06-30T01:15:21.961Z,30.18
2023-06-30T01:16:22.088Z,30.17
2023-06-30T01:17:22.121Z,30.20
2023-06-30T01:18:22.129Z,30.17
2023-06-30T01:19:22.143Z,30.17
2023-06-30T01:20:22.228Z,30.17
2023-06-30T01:21:22.311Z,30.17
2023-06-30T01:22:23.168Z,30.16
2023-06-30T01:23:22.357Z,30.17
2023-06-30T01:24:22.449Z,30.17
2023-06-30T01:25:22.488Z,30.14
2023-06-30T01:26:22.578Z,30.16
2023-06-30T01:27:22.569Z,30.16
2023-06-30T01:28:22.570Z,30.17
2023-06-30T01:29:22.654Z,30.17
2023-06-30T01:30:22.697Z,30.16
2023-06-30T01:31:22.754Z,30.16
2023-06-30T01:32:22.834Z,30.16
2023-06-30T01:33:22.851Z,30.14
2023-06-30T01:34:22.858Z,30.16
2023-06-30T01:35:22.936Z,30.16
2023-06-30T01:36:22.985Z,30.13
2023-06-30T01:37:23.016Z,30.17
2023-06-30T01:38:23.075Z,30.16
2023-06-30T01:39:23.115Z,30.14
2023-06-30T01:40:23.198Z,30.17
2023-06-30T01:41:23.230Z,30.14
2023-06-30T01:42:23.340Z,30.16
2023-06-30T01:43:23.342Z,30.16
2023-06-30T01:44:23.391Z,30.14
2023-06-30T01:45:23.492Z,30.14
2023-06-30T01:46:23.563Z,30.14
2023-06-30T01:47:23.583Z,30.16
2023-06-30T01:48:23.599Z,30.13
2023-06-30T01:49:23.685Z,30.14
2023-06-30T01:50:23.714Z,30.13
2023-06-30T01:51:23.766Z,30.13
2023-06-30T01:52:23.799Z,30.14
2023-06-30T01:53:23.851Z,30.11
2023-06-30T01:54:23.873Z,30.13
2023-06-30T01:55:23.916Z,30.16
2023-06-30T01:56:23.989Z,30.13
2023-06-30T01:57:24.035Z,30.13
2023-06-30T01:58:24.088Z,30.14
2023-06-30T01:59:24.147Z,30.14
2023-06-30T02:00:24.169Z,30.13
2023-06-30T02:01:24.265Z,30.14
2023-06-30T02:02:24.357Z,30.14
2023-06-30T02:03:24.493Z,30.14
2023-06-30T02:04:24.323Z,30.11
2023-06-30T02:05:24.428Z,30.14
2023-06-30T02:06:24.442Z,30.13
2023-06-30T02:07:24.611Z,30.10
2023-06-30T02:08:24.589Z,30.13
2023-06-30T02:09:30.925Z,30.14
2023-06-30T02:10:25.594Z,30.14
2023-06-30T02:11:24.597Z,30.13
2023-06-30T02:12:24.591Z,30.14
2023-06-30T02:13:24.544Z,30.13
2023-06-30T02:14:24.566Z,30.10
2023-06-30T02:15:24.579Z,30.11
2023-06-30T02:16:24.584Z,30.11
2023-06-30T02:17:24.589Z,30.13
2023-06-30T02:18:24.567Z,30.11
2023-06-30T02:19:24.611Z,30.13
2023-06-30T02:20:24.631Z,30.11
2023-06-30T02:21:24.647Z,30.11
2023-06-30T02:22:24.687Z,30.11
2023-06-30T02:23:24.766Z,30.10
2023-06-30T02:24:24.807Z,30.11
2023-06-30T02:25:24.862Z,30.13
2023-06-30T02:26:24.869Z,30.10
2023-06-30T02:27:24.985Z,30.11
2023-06-30T02:28:25.009Z,30.10
2023-06-30T02:29:25.058Z,30.13
2023-06-30T02:30:25.099Z,30.10
2023-06-30T02:31:25.204Z,30.10
2023-06-30T02:32:25.343Z,30.09
2023-06-30T02:33:25.290Z,30.11
2023-06-30T02:34:25.301Z,30.10
2023-06-30T02:35:25.446Z,30.09
2023-06-30T02:36:25.405Z,30.09
2023-06-30T02:37:25.514Z,30.09
2023-06-30T02:38:25.537Z,30.10
2023-06-30T02:39:25.605Z,30.10
2023-06-30T02:40:25.657Z,30.11
2023-06-30T02:41:25.720Z,30.10
2023-06-30T02:42:25.824Z,30.09
2023-06-30T02:43:25.837Z,30.10
2023-06-30T02:44:25.942Z,30.07
2023-06-30T02:45:25.950Z,30.10
2023-06-30T02:46:26.129Z,30.10
2023-06-30T02:47:26.117Z,30.07
2023-06-30T02:48:26.151Z,30.11
2023-06-30T02:49:26.188Z,30.07
2023-06-30T02:50:26.280Z,30.11
2023-06-30T02:51:26.330Z,30.07
2023-06-30T02:52:26.384Z,30.06
2023-06-30T02:53:26.439Z,30.10
2023-06-30T02:54:26.507Z,30.09
2023-06-30T02:55:26.583Z,30.10
2023-06-30T02:56:26.618Z,30.10
2023-06-30T02:57:26.683Z,30.07
2023-06-30T02:58:26.788Z,30.09
2023-06-30T02:59:26.789Z,30.09
2023-06-30T03:00:26.808Z,30.09
2023-06-30T03:01:26.921Z,30.09
2023-06-30T03:02:27.162Z,30.09
2023-06-30T03:03:27.034Z,30.07
2023-06-30T03:04:27.085Z,30.09
2023-06-30T03:05:27.016Z,30.09
2023-06-30T03:06:27.096Z,30.09
2023-06-30T03:07:27.175Z,30.07
2023-06-30T03:08:27.200Z,30.06
2023-06-30T03:09:27.249Z,30.09
2023-06-30T03:10:27.327Z,30.07
2023-06-30T03:11:27.378Z,30.06
2023-06-30T03:12:27.413Z,30.06
2023-06-30T03:13:27.468Z,30.06
2023-06-30T03:14:27.514Z,30.09
2023-06-30T03:15:27.562Z,30.09
2023-06-30T03:16:27.690Z,30.07
2023-06-30T03:17:27.736Z,30.06
2023-06-30T03:18:27.732Z,30.07
2023-06-30T03:19:27.745Z,30.07
2023-06-30T03:20:27.807Z,30.09
2023-06-30T03:21:27.875Z,30.07
2023-06-30T03:22:27.900Z,30.07
2023-06-30T03:23:27.956Z,30.07
2023-06-30T03:24:27.993Z,30.06
2023-06-30T03:25:28.045Z,30.07
2023-06-30T03:26:28.057Z,30.07
2023-06-30T03:27:28.103Z,30.09
2023-06-30T03:28:28.131Z,30.07
2023-06-30T03:29:28.198Z,30.06
2023-06-30T03:30:28.285Z,30.09
2023-06-30T03:31:28.378Z,30.09
2023-06-30T03:32:28.357Z,30.07
2023-06-30T03:33:28.375Z,30.07
2023-06-30T03:34:28.456Z,30.06
2023-06-30T03:35:28.492Z,30.06
2023-06-30T03:36:28.484Z,30.06
2023-06-30T03:37:28.542Z,30.06
2023-06-30T03:38:28.589Z,30.06
2023-06-30T03:39:28.618Z,30.06
2023-06-30T03:40:28.715Z,30.04
2023-06-30T03:41:28.718Z,30.04
2023-06-30T03:42:28.717Z,30.04
2023-06-30T03:43:28.830Z,30.06
2023-06-30T03:44:28.868Z,30.03
2023-06-30T03:45:28.899Z,30.06
2023-06-30T03:46:29.026Z,30.06
2023-06-30T03:47:29.082Z,30.03
2023-06-30T03:48:29.086Z,30.06
2023-06-30T03:49:29.133Z,30.04
2023-06-30T03:50:29.201Z,30.06
2023-06-30T03:51:29.259Z,30.04
2023-06-30T03:52:29.300Z,30.06
2023-06-30T03:53:29.366Z,30.07
2023-06-30T03:54:29.438Z,30.04
2023-06-30T03:55:29.498Z,30.06
2023-06-30T03:56:29.548Z,30.06
2023-06-30T03:57:29.606Z,30.04
2023-06-30T03:58:29.645Z,30.04
2023-06-30T03:59:29.722Z,30.06
2023-06-30T04:00:29.759Z,30.04
2023-06-30T04:01:29.783Z,30.07
2023-06-30T04:02:29.903Z,30.06
2023-06-30T04:03:30.084Z,30.04
2023-06-30T04:04:30.034Z,30.04
2023-06-30T04:05:30.002Z,30.06
2023-06-30T04:06:30.083Z,30.04
2023-06-30T04:07:30.262Z,30.06
2023-06-30T04:08:30.342Z,30.04
2023-06-30T04:09:30.237Z,30.06
2023-06-30T04:10:30.319Z,30.06
2023-06-30T04:11:30.354Z,30.04
2023-06-30T04:12:30.409Z,30.06
2023-06-30T04:13:30.507Z,30.03
2023-06-30T07:45:56.168Z,27.47
2023-06-30T07:46:56.503Z,27.87
2023-06-30T07:47:56.208Z,28.20
2023-06-30T07:48:56.152Z,28.43
2023-06-30T07:49:56.090Z,28.64
2023-06-30T07:51:08.477Z,28.82
2023-06-30T07:51:57.075Z,28.99
2023-06-30T07:52:56.080Z,29.14
2023-06-30T07:53:56.071Z,29.28
2023-06-30T07:54:56.024Z,29.41
2023-06-30T07:55:56.030Z,29.47
2023-06-30T07:56:56.007Z,29.54
2023-06-30T07:57:56.059Z,29.61
2023-06-30T07:58:56.001Z,29.67
2023-06-30T07:59:58.429Z,29.71
2023-06-30T08:00:56.234Z,29.73
2023-06-30T08:01:56.255Z,29.80
2023-06-30T08:02:56.519Z,29.77
2023-06-30T08:03:56.547Z,29.82
2023-06-30T08:04:56.496Z,29.82
2023-06-30T08:05:56.568Z,29.79
2023-06-30T08:06:56.384Z,29.72
2023-06-30T08:07:56.588Z,29.68
2023-06-30T08:08:56.465Z,29.65
2023-06-30T08:09:56.505Z,29.64
2023-06-30T08:10:56.517Z,29.58
2023-06-30T08:11:56.561Z,29.54
2023-06-30T08:12:56.602Z,29.48
2023-06-30T08:13:56.617Z,29.38
2023-06-30T08:14:56.708Z,29.33
2023-06-30T08:15:56.893Z,29.26
2023-06-30T08:16:58.306Z,29.13
2023-06-30T08:17:57.064Z,29.07
2023-06-30T08:18:56.920Z,29.05
2023-06-30T08:19:56.981Z,29.03
2023-06-30T08:20:56.969Z,29.06
2023-06-30T08:21:57.045Z,29.09
2023-06-30T08:22:57.033Z,29.13
2023-06-30T08:23:57.123Z,29.17
2023-06-30T08:24:57.211Z,29.19
2023-06-30T08:25:57.239Z,29.24
2023-06-30T08:26:57.277Z,29.28
2023-06-30T08:27:57.269Z,29.30
2023-06-30T08:28:57.312Z,29.30
2023-06-30T08:29:57.360Z,29.33
2023-06-30T08:30:57.837Z,29.40
2023-06-30T08:31:57.340Z,29.44
2023-06-30T08:32:57.623Z,29.51
2023-06-30T08:33:57.361Z,29.52
2023-06-30T08:34:57.353Z,29.54
2023-06-30T08:35:57.329Z,29.58
2023-06-30T08:36:57.411Z,29.64
2023-06-30T08:37:57.434Z,29.72
2023-06-30T08:38:57.485Z,29.73
2023-06-30T08:39:57.594Z,29.77
2023-06-30T08:40:57.640Z,29.75
2023-06-30T08:41:57.710Z,29.83
2023-06-30T08:42:57.758Z,29.82
2023-06-30T08:43:57.798Z,29.87
2023-06-30T08:44:57.911Z,29.85
2023-06-30T08:45:57.920Z,29.87
2023-06-30T08:46:58.021Z,29.89
2023-06-30T08:47:58.122Z,29.92
2023-06-30T08:48:58.102Z,29.94
2023-06-30T08:49:58.200Z,29.93
2023-06-30T08:50:58.233Z,29.82
2023-06-30T08:51:58.221Z,29.87
2023-06-30T08:52:58.265Z,29.87
2023-06-30T08:53:58.275Z,29.86
2023-06-30T08:54:58.376Z,29.87
2023-06-30T08:55:58.399Z,29.87
2023-06-30T08:56:58.422Z,29.87
2023-06-30T08:58:00.592Z,29.87
2023-06-30T08:58:59.461Z,29.92
2023-06-30T08:59:58.467Z,29.96
2023-06-30T09:00:58.597Z,29.96
2023-06-30T09:01:58.521Z,29.97
2023-06-30T09:02:58.548Z,30.00
2023-06-30T09:03:58.506Z,30.06
2023-06-30T09:04:58.461Z,30.07
2023-06-30T09:05:58.466Z,30.06
2023-06-30T09:07:00.511Z,30.10
2023-06-30T09:07:58.406Z,30.06
2023-06-30T09:08:58.435Z,30.09
2023-06-30T09:09:58.382Z,30.03
2023-06-30T09:10:58.408Z,30.03
2023-06-30T09:11:58.371Z,30.03
2023-06-30T09:12:58.384Z,30.04
2023-06-30T09:13:58.342Z,30.04
2023-06-30T09:14:58.393Z,30.04
2023-06-30T09:15:58.380Z,30.03
2023-06-30T09:16:58.489Z,30.07
2023-06-30T09:17:58.381Z,29.99
2023-06-30T09:18:58.343Z,30.01
2023-06-30T09:19:58.328Z,30.04
2023-06-30T09:20:58.352Z,30.06
2023-06-30T09:21:58.333Z,30.03
2023-06-30T09:22:58.365Z,30.04
2023-06-30T09:23:58.322Z,30.07
2023-06-30T09:24:58.286Z,30.06
2023-06-30T09:25:58.365Z,30.04
2023-06-30T09:26:58.269Z,30.10
2023-06-30T09:27:58.281Z,30.10
2023-06-30T09:28:58.290Z,30.11
2023-06-30T09:29:58.249Z,30.04
2023-06-30T09:30:58.308Z,30.11
2023-06-30T09:32:21.042Z,30.06
2023-06-30T09:33:20.961Z,30.09
2023-06-30T09:34:21.011Z,30.13
2023-06-30T09:35:20.989Z,30.17
2023-06-30T09:36:20.936Z,30.18
2023-06-30T09:37:20.952Z,30.21
2023-06-30T09:38:20.954Z,30.18
2023-06-30T09:39:21.009Z,30.16
2023-06-30T09:40:20.936Z,30.23
2023-06-30T09:41:20.942Z,30.24
2023-06-30T09:42:20.923Z,30.27
2023-06-30T09:43:20.935Z,30.30
2023-06-30T09:44:20.916Z,30.28
2023-06-30T09:45:20.933Z,30.30
2023-06-30T09:46:20.970Z,30.23
2023-06-30T09:47:20.974Z,30.21
2023-06-30T09:48:20.960Z,30.07
2023-06-30T09:49:20.874Z,30.13
2023-06-30T09:50:20.883Z,30.11
2023-06-30T09:51:20.831Z,29.93
2023-06-30T09:52:20.893Z,29.96
2023-06-30T09:53:20.901Z,29.79
2023-06-30T09:54:28.844Z,29.85
2023-06-30T09:55:21.837Z,29.89
2023-06-30T09:56:21.150Z,29.90
2023-06-30T09:57:20.812Z,29.92
2023-06-30T09:58:20.814Z,29.96
2023-06-30T09:59:20.836Z,30.00
2023-06-30T10:00:34.496Z,30.01
2023-06-30T10:01:22.270Z,30.06
2023-06-30T10:02:20.830Z,30.09
2023-06-30T10:03:20.883Z,30.13
2023-06-30T10:04:20.810Z,30.17
2023-06-30T10:05:20.773Z,30.20
2023-06-30T10:06:21.201Z,30.24
2023-06-30T10:07:20.855Z,30.28
2023-06-30T10:08:20.757Z,30.30
2023-06-30T10:09:20.744Z,30.30
2023-06-30T10:10:20.737Z,30.34
2023-06-30T10:11:20.770Z,30.35
2023-06-30T10:12:20.727Z,30.36
2023-06-30T10:13:20.743Z,30.38
2023-06-30T10:14:20.731Z,30.38
2023-06-30T10:15:20.715Z,30.41
2023-06-30T10:16:20.704Z,30.41
2023-06-30T10:17:20.726Z,30.41
2023-06-30T10:18:20.752Z,30.45
2023-06-30T10:19:20.670Z,30.45
2023-06-30T10:20:23.690Z,30.46
2023-06-30T10:21:21.662Z,30.48
2023-06-30T10:22:20.658Z,30.49
2023-06-30T10:23:20.821Z,30.55
2023-06-30T10:24:20.664Z,30.55
2023-06-30T10:25:20.667Z,30.54
2023-06-30T10:26:20.721Z,30.51
2023-06-30T10:27:20.613Z,30.52
2023-06-30T10:28:20.666Z,30.54
2023-06-30T10:29:20.637Z,30.52
2023-06-30T10:30:20.603Z,30.54
2023-06-30T10:31:20.686Z,30.54
2023-06-30T10:32:20.605Z,30.54
2023-06-30T10:33:20.690Z,30.54
2023-06-30T10:34:20.600Z,30.56
2023-06-30T10:35:20.591Z,30.58
2023-06-30T10:36:20.571Z,30.58
2023-06-30T10:37:20.576Z,30.58
2023-06-30T10:38:20.578Z,30.61
2023-06-30T10:39:20.554Z,30.52
2023-06-30T10:40:20.610Z,30.58
2023-06-30T10:41:20.868Z,30.59
2023-06-30T10:42:20.555Z,30.58
2023-06-30T10:43:20.534Z,30.58
2023-06-30T10:44:20.543Z,30.56
2023-06-30T10:45:20.516Z,30.56
2023-06-30T10:46:20.566Z,30.52
2023-06-30T10:47:20.519Z,30.51
2023-06-30T10:48:20.515Z,30.51
2023-06-30T10:49:20.523Z,30.46
2023-06-30T10:50:20.519Z,30.45
2023-06-30T10:51:20.488Z,30.45
2023-06-30T10:52:20.487Z,30.48
2023-06-30T10:53:20.509Z,30.45
2023-06-30T10:54:20.523Z,30.48
2023-06-30T10:55:20.459Z,30.45
2023-06-30T10:56:20.447Z,30.42
2023-06-30T10:57:20.483Z,30.42
2023-06-30T10:58:20.496Z,30.43
2023-06-30T10:59:20.544Z,30.46
2023-06-30T11:00:20.516Z,30.42
2023-06-30T11:01:20.563Z,30.41
2023-06-30T11:02:20.604Z,30.42
2023-06-30T11:03:20.709Z,30.41
2023-06-30T11:04:20.756Z,30.41
2023-06-30T11:05:20.638Z,30.38
2023-06-30T11:06:20.697Z,30.41
2023-06-30T11:07:20.722Z,30.38
2023-06-30T11:08:20.659Z,30.35
2023-06-30T11:09:20.714Z,30.36
2023-06-30T11:10:20.729Z,30.32
2023-06-30T11:11:20.776Z,30.36
2023-06-30T11:12:20.777Z,30.32
2023-06-30T11:13:20.802Z,30.32
2023-06-30T11:14:20.834Z,30.34
2023-06-30T11:15:20.862Z,30.35
2023-06-30T11:16:20.869Z,30.34
2023-06-30T11:17:20.933Z,30.30
2023-06-30T11:18:20.977Z,30.30
2023-06-30T11:19:20.975Z,30.31
2023-06-30T11:20:20.943Z,30.32
2023-06-30T11:21:20.984Z,30.31
2023-06-30T11:22:20.967Z,30.32
2023-06-30T11:23:21.685Z,30.32
2023-06-30T11:24:21.027Z,30.31
2023-06-30T11:25:21.036Z,30.30
2023-06-30T11:26:21.039Z,30.28
2023-06-30T11:27:21.081Z,30.34
2023-06-30T11:28:21.077Z,30.34
2023-06-30T11:29:21.185Z,30.34
2023-06-30T11:30:21.169Z,30.38
2023-06-30T11:31:21.310Z,30.38
2023-06-30T11:32:21.191Z,30.39
2023-06-30T11:33:21.223Z,30.41
2023-06-30T11:34:21.249Z,30.39
2023-06-30T11:35:21.325Z,30.41
2023-06-30T11:36:21.725Z,30.42
2023-06-30T11:37:21.357Z,30.36
2023-06-30T11:38:21.393Z,30.41
2023-06-30T11:39:21.392Z,30.42
2023-06-30T11:40:21.396Z,30.39
2023-06-30T11:41:21.859Z,30.42
2023-06-30T11:42:21.479Z,30.43
2023-06-30T11:43:21.487Z,30.41
2023-06-30T11:44:21.481Z,30.42
2023-06-30T11:45:21.533Z,30.42
2023-06-30T11:46:21.752Z,30.41
2023-06-30T11:47:21.721Z,30.41
2023-06-30T11:48:21.595Z,30.39
2023-06-30T11:49:21.606Z,30.41
2023-06-30T11:50:21.689Z,30.41
2023-06-30T11:51:21.674Z,30.39
2023-06-30T11:52:21.682Z,30.39
2023-06-30T11:53:21.721Z,30.41
2023-06-30T11:54:21.755Z,30.42
2023-06-30T11:55:21.765Z,30.41
2023-06-30T11:56:22.244Z,30.41
2023-06-30T11:57:21.824Z,30.39
2023-06-30T11:58:21.831Z,30.39
2023-06-30T11:59:21.833Z,30.41
2023-06-30T12:00:21.869Z,30.41
2023-06-30T12:01:22.260Z,30.41
2023-06-30T12:02:22.013Z,30.41
2023-06-30T12:03:21.949Z,30.41
2023-06-30T12:04:22.085Z,30.43
2023-06-30T12:05:22.029Z,30.39
2023-06-30T12:06:22.233Z,30.43
2023-06-30T12:07:22.083Z,30.43
2023-06-30T12:08:22.095Z,30.43
2023-06-30T12:09:22.112Z,30.45
2023-06-30T12:10:22.118Z,30.45
2023-06-30T12:11:22.228Z,30.43
2023-06-30T12:12:22.186Z,30.43
2023-06-30T12:13:22.246Z,30.43
2023-06-30T12:14:22.260Z,30.42
2023-06-30T12:15:22.285Z,30.42
2023-06-30T12:16:22.417Z,30.43
2023-06-30T12:17:22.339Z,30.45
2023-06-30T12:18:22.353Z,30.45
2023-06-30T12:19:22.417Z,30.46
2023-06-30T12:20:22.479Z,30.49
2023-06-30T12:21:22.429Z,30.49
2023-06-30T12:22:22.470Z,30.46
2023-06-30T12:23:22.472Z,30.49
2023-06-30T12:24:22.558Z,30.51
2023-06-30T12:25:22.529Z,30.51
2023-06-30T12:26:22.585Z,30.52
2023-06-30T12:27:22.588Z,30.49
2023-06-30T12:28:22.609Z,30.54
2023-06-30T12:29:22.626Z,30.49
2023-06-30T12:30:22.680Z,30.51
2023-06-30T12:31:22.703Z,30.51
2023-06-30T12:32:22.755Z,30.51
2023-06-30T12:33:22.718Z,30.52
2023-06-30T12:34:22.784Z,30.51
2023-06-30T12:35:22.761Z,30.49
2023-06-30T12:36:23.260Z,30.48
2023-06-30T12:37:22.880Z,30.48
2023-06-30T12:38:22.954Z,30.46
2023-06-30T12:39:22.939Z,30.45
2023-06-30T12:40:22.946Z,30.46
2023-06-30T12:41:23.006Z,30.43
2023-06-30T12:42:23.040Z,30.45
2023-06-30T12:43:23.054Z,30.43
2023-06-30T12:44:23.020Z,30.42
2023-06-30T12:45:23.093Z,30.42
2023-06-30T12:46:23.172Z,30.42
2023-06-30T12:47:23.263Z,30.42
2023-06-30T12:48:23.184Z,30.42
2023-06-30T12:49:23.189Z,30.42
2023-06-30T12:50:23.820Z,30.43
2023-06-30T12:51:23.268Z,30.45
2023-06-30T12:52:23.256Z,30.45
2023-06-30T12:53:23.308Z,30.45
2023-06-30T12:54:23.353Z,30.45
2023-06-30T12:55:23.380Z,30.46
2023-06-30T12:56:23.423Z,30.46
2023-06-30T12:57:23.401Z,30.45
2023-06-30T12:58:23.810Z,30.45
2023-06-30T12:59:23.493Z,30.43
2023-06-30T13:00:23.561Z,30.45
2023-06-30T13:01:30.837Z,30.46
2023-06-30T13:02:23.557Z,30.45
2023-06-30T13:03:23.679Z,30.46
2023-06-30T13:04:23.849Z,30.46
2023-06-30T13:05:23.512Z,30.43
2023-06-30T13:06:23.782Z,30.43
2023-06-30T13:07:23.627Z,30.46
2023-06-30T13:08:23.514Z,30.43
2023-06-30T13:09:23.531Z,30.42
2023-06-30T13:10:23.849Z,30.43
2023-06-30T13:11:23.823Z,30.42
2023-06-30T13:12:23.459Z,30.41
2023-06-30T13:13:23.500Z,30.42
2023-06-30T13:14:23.457Z,30.42
2023-06-30T13:15:23.453Z,30.42
2023-06-30T13:16:23.873Z,30.39
2023-06-30T13:17:23.477Z,30.43
2023-06-30T13:18:23.433Z,30.41
2023-06-30T13:19:23.429Z,30.42
2023-06-30T13:20:23.459Z,30.41
2023-06-30T13:21:23.775Z,30.39
2023-06-30T13:22:23.419Z,30.39
2023-06-30T13:23:32.279Z,30.39
2023-06-30T13:24:26.426Z,30.38
2023-06-30T13:25:23.384Z,30.38
2023-06-30T13:26:23.806Z,30.39
2023-06-30T13:27:23.404Z,30.35
2023-06-30T13:28:23.427Z,30.39
2023-06-30T13:29:23.394Z,30.38
2023-06-30T13:30:23.731Z,30.36
2023-06-30T13:31:23.826Z,30.35
2023-06-30T13:32:23.427Z,30.36
2023-06-30T13:33:23.304Z,30.36
2023-06-30T13:34:23.314Z,30.38
2023-06-30T13:35:23.390Z,30.38
2023-06-30T13:36:24.242Z,30.35
2023-06-30T13:37:23.311Z,30.36
2023-06-30T13:38:23.311Z,30.36
2023-06-30T13:39:23.325Z,30.35
2023-06-30T13:40:23.278Z,30.38
2023-06-30T13:41:23.812Z,30.36
2023-06-30T13:42:23.319Z,30.38
2023-06-30T13:43:23.271Z,30.36
2023-06-30T13:44:23.273Z,30.38
2023-06-30T13:45:23.254Z,30.36
2023-06-30T13:46:23.344Z,30.36
2023-06-30T13:47:23.407Z,30.35
2023-06-30T13:48:23.338Z,30.36
2023-06-30T13:49:23.346Z,30.35
2023-06-30T13:50:23.416Z,30.35
2023-06-30T13:51:23.783Z,30.36
2023-06-30T13:52:23.483Z,30.35
2023-06-30T13:53:24.082Z,30.35
2023-06-30T13:54:23.550Z,30.34
2023-06-30T13:55:23.593Z,30.34
2023-06-30T13:56:23.645Z,30.32
2023-06-30T13:57:23.711Z,30.35
2023-06-30T13:58:23.726Z,30.32
2023-06-30T13:59:23.763Z,30.34
2023-06-30T14:00:23.764Z,30.32
2023-06-30T14:01:23.865Z,30.31
2023-06-30T14:02:23.887Z,30.31
2023-06-30T14:03:23.915Z,30.30
2023-06-30T14:04:23.977Z,30.31
2023-06-30T14:05:24.061Z,30.32
2023-06-30T14:06:24.015Z,30.28
2023-06-30T14:07:24.060Z,30.31
2023-06-30T14:08:24.102Z,30.30
2023-06-30T14:09:24.139Z,30.30
2023-06-30T14:10:24.241Z,30.28
2023-06-30T14:11:24.322Z,30.27
2023-06-30T14:12:24.264Z,30.27
2023-06-30T14:13:24.333Z,30.25
2023-06-30T14:14:24.357Z,30.27
2023-06-30T14:15:24.450Z,30.24
2023-06-30T14:16:24.889Z,30.23
2023-06-30T14:17:24.510Z,30.23
2023-06-30T14:18:24.545Z,30.23
2023-06-30T14:19:24.595Z,30.23
2023-06-30T14:20:24.633Z,30.23
2023-06-30T14:21:24.802Z,30.21
2023-06-30T14:22:24.734Z,30.20
2023-06-30T14:23:24.811Z,30.20
2023-06-30T14:24:24.870Z,30.21
2023-06-30T14:25:24.945Z,30.20
2023-06-30T14:26:24.954Z,30.20
2023-06-30T14:27:25.059Z,30.17
2023-06-30T14:28:25.062Z,30.16
2023-06-30T14:29:25.193Z,30.17
2023-06-30T14:30:25.174Z,30.16
2023-06-30T14:31:25.281Z,30.17
2023-06-30T14:32:25.309Z,30.16
2023-06-30T14:33:25.284Z,30.14
2023-06-30T14:34:25.326Z,30.14
2023-06-30T14:35:25.391Z,30.14
2023-06-30T14:36:25.837Z,30.14
2023-06-30T14:37:25.472Z,30.11
2023-06-30T14:38:25.547Z,30.17
2023-06-30T14:39:25.607Z,30.13
2023-06-30T14:40:25.654Z,30.13
2023-06-30T14:41:25.877Z,30.10
2023-06-30T14:42:32.189Z,30.14
2023-06-30T14:43:26.745Z,30.11
2023-06-30T14:44:25.779Z,30.09
2023-06-30T14:45:25.712Z,30.13
2023-06-30T14:46:25.760Z,30.11
2023-06-30T14:47:25.788Z,30.10
2023-06-30T14:48:26.293Z,30.10
2023-06-30T14:49:25.712Z,30.11
2023-06-30T14:50:25.733Z,30.10
2023-06-30T14:51:25.821Z,30.09
2023-06-30T14:52:25.857Z,30.10
2023-06-30T14:53:25.860Z,30.10
2023-06-30T14:54:25.918Z,30.10
2023-06-30T14:55:25.963Z,30.09
2023-06-30T14:56:26.322Z,30.09
2023-06-30T14:57:26.182Z,30.09
2023-06-30T14:58:26.173Z,30.09
2023-06-30T14:59:26.200Z,30.09
2023-06-30T15:00:26.294Z,30.09
2023-06-30T15:01:26.810Z,30.09
2023-06-30T15:02:26.525Z,30.11
2023-06-30T15:03:26.541Z,30.07
2023-06-30T15:04:26.539Z,30.06
2023-06-30T15:05:26.563Z,30.07
2023-06-30T15:06:26.850Z,30.10
2023-06-30T15:07:26.671Z,30.06
2023-06-30T15:08:26.757Z,30.07
2023-06-30T15:09:26.800Z,30.07
2023-06-30T15:10:26.904Z,30.10
2023-06-30T15:11:27.349Z,30.06
2023-06-30T15:12:26.944Z,30.09
2023-06-30T15:13:27.023Z,30.07
2023-06-30T15:14:27.118Z,30.09
2023-06-30T15:15:27.111Z,30.07
2023-06-30T15:16:27.368Z,30.09
2023-06-30T15:17:27.217Z,30.07
2023-06-30T15:18:27.237Z,30.07
2023-06-30T15:19:27.302Z,30.09
2023-06-30T15:20:27.308Z,30.07
2023-06-30T15:21:27.388Z,30.07
2023-06-30T15:22:27.431Z,30.09
2023-06-30T15:23:27.476Z,30.10
2023-06-30T15:24:27.558Z,30.07
2023-06-30T15:25:27.794Z,30.09
2023-06-30T15:26:27.867Z,30.09
2023-06-30T15:27:27.763Z,30.09
2023-06-30T15:28:27.804Z,30.07
2023-06-30T15:29:27.824Z,30.09
2023-06-30T15:30:27.898Z,30.09
2023-06-30T15:31:27.983Z,30.07
2023-06-30T15:32:28.064Z,30.09
2023-06-30T15:33:28.112Z,30.09
2023-06-30T15:34:28.130Z,30.09
2023-06-30T15:35:28.199Z,30.09
2023-06-30T15:36:28.215Z,30.10
2023-06-30T15:37:28.291Z,30.07
2023-06-30T15:38:28.368Z,30.09
2023-06-30T15:39:28.409Z,30.07
2023-06-30T15:40:28.446Z,30.10
2023-06-30T15:41:28.519Z,30.07
2023-06-30T15:42:28.555Z,30.09
2023-06-30T15:43:28.602Z,30.10
2023-06-30T15:44:28.683Z,30.07
2023-06-30T15:45:28.754Z,30.09
2023-06-30T15:46:28.856Z,30.07
2023-06-30T15:47:28.897Z,30.10
2023-06-30T15:48:28.917Z,30.11
2023-06-30T15:49:28.987Z,30.09
2023-06-30T15:50:29.044Z,30.09
2023-06-30T15:51:29.342Z,30.11
2023-06-30T15:52:29.136Z,30.07
2023-06-30T15:53:29.185Z,30.13
2023-06-30T15:54:29.233Z,30.07
2023-06-30T15:55:29.381Z,30.10
2023-06-30T15:56:29.846Z,30.09
2023-06-30T15:57:29.409Z,30.10
2023-06-30T15:58:29.455Z,30.10
2023-06-30T15:59:29.523Z,30.09
2023-06-30T16:00:29.551Z,30.09
2023-06-30T16:01:29.829Z,30.10
2023-06-30T16:02:29.715Z,30.11
2023-06-30T16:03:29.846Z,30.10
2023-06-30T16:04:29.883Z,30.10
2023-06-30T16:05:30.018Z,30.11
2023-06-30T16:06:30.366Z,30.10
2023-06-30T16:07:29.928Z,30.09
2023-06-30T16:08:29.970Z,30.07
2023-06-30T16:09:30.035Z,30.04
2023-06-30T16:10:30.069Z,30.04
2023-06-30T16:11:30.335Z,30.01
2023-06-30T16:12:30.269Z,30.01
2023-06-30T16:13:30.240Z,29.99
2023-06-30T16:14:30.231Z,29.96
2023-06-30T16:15:30.260Z,29.93
2023-06-30T16:16:30.384Z,29.92
2023-06-30T16:17:30.311Z,29.89
2023-06-30T16:18:30.252Z,29.87
2023-06-30T16:19:30.258Z,29.85
2023-06-30T16:20:30.268Z,29.85
2023-06-30T16:21:30.345Z,29.80
2023-06-30T16:22:30.297Z,29.82
2023-06-30T16:23:30.302Z,29.79
2023-06-30T16:24:30.293Z,29.80